createdAt,value
2023-11-16T00:00:48.355Z,3.47
2023-11-16T00:03:16.294Z,5.88
2023-11-16T00:05:44.938Z,6.40
2023-11-16T00:08:12.529Z,6.50
2023-11-16T00:10:41.963Z,5.32
2023-11-16T00:13:10.359Z,4.47
2023-11-16T00:15:38.013Z,5.38
2023-11-16T00:18:07.003Z,4.40
2023-11-16T00:20:37.185Z,5.90
2023-11-16T00:23:05.418Z,5.75
2023-11-16T00:25:33.398Z,4.90
2023-11-16T00:28:02.390Z,5.68
2023-11-16T00:30:30.110Z,4.50
2023-11-16T00:32:57.765Z,4.57
2023-11-16T00:35:25.418Z,3.20
2023-11-16T00:37:53.998Z,2.78
2023-11-16T00:40:23.792Z,6.60
2023-11-16T00:42:52.022Z,2.70
2023-11-16T00:45:21.655Z,2.65
2023-11-16T00:47:49.407Z,3.72
2023-11-16T00:50:17.040Z,2.60
2023-11-16T00:52:48.521Z,2.80
2023-11-16T00:55:16.533Z,2.63
2023-11-16T00:57:48.252Z,3.00
2023-11-16T01:00:16.856Z,2.70
2023-11-16T01:02:50.399Z,3.22
2023-11-16T01:05:19.552Z,2.60
2023-11-16T01:07:47.180Z,2.50
2023-11-16T01:10:18.955Z,2.90
2023-11-16T01:12:46.507Z,2.70
2023-11-16T01:15:15.495Z,3.25
2023-11-16T01:17:46.459Z,2.65
2023-11-16T01:20:20.891Z,3.40
2023-11-16T01:23:03.372Z,2.50
2023-11-16T01:25:33.673Z,2.60
2023-11-16T01:28:02.184Z,2.50
2023-11-16T01:30:29.988Z,2.78
2023-11-16T01:32:57.776Z,2.83
2023-11-16T01:35:27.023Z,3.22
2023-11-16T01:37:57.428Z,2.78
2023-11-16T01:40:28.624Z,2.90
2023-11-16T01:42:57.260Z,3.03
2023-11-16T01:45:29.134Z,2.67
2023-11-16T01:47:57.042Z,3.03
2023-11-16T01:50:26.049Z,3.17
2023-11-16T01:53:03.903Z,3.70
2023-11-16T01:55:32.288Z,2.75
2023-11-16T01:58:03.416Z,2.70
2023-11-16T02:00:31.126Z,4.38
2023-11-16T02:03:00.521Z,2.50
2023-11-16T02:05:29.521Z,2.65
2023-11-16T02:07:57.114Z,2.60
2023-11-16T02:10:24.678Z,2.37
2023-11-16T02:12:55.006Z,2.75
2023-11-16T02:15:23.075Z,2.80
2023-11-16T02:17:51.165Z,3.75
2023-11-16T02:20:21.070Z,2.60
2023-11-16T02:22:53.635Z,3.13
2023-11-16T02:25:22.565Z,2.67
2023-11-16T02:27:50.119Z,2.80
2023-11-16T02:30:17.768Z,2.85
2023-11-16T02:32:45.410Z,2.50
2023-11-16T02:35:13.308Z,5.55
2023-11-16T02:37:41.196Z,2.60
2023-11-16T02:40:11.207Z,2.78
2023-11-16T02:42:40.176Z,2.80
2023-11-16T02:45:08.302Z,3.60
2023-11-16T02:47:38.142Z,2.53
2023-11-16T02:50:06.306Z,2.47
2023-11-16T02:52:34.170Z,2.17
2023-11-16T02:55:01.802Z,2.13
2023-11-16T02:57:30.421Z,2.85
2023-11-16T02:59:59.582Z,2.20
2023-11-16T03:02:27.315Z,2.20
2023-11-16T03:04:55.235Z,2.38
2023-11-16T03:07:30.709Z,2.65
2023-11-16T03:10:02.319Z,2.30
2023-11-16T03:12:29.925Z,3.80
2023-11-16T03:14:59.493Z,3.70
2023-11-16T03:17:27.954Z,2.72
2023-11-16T03:19:55.851Z,2.35
2023-11-16T03:22:23.440Z,2.50
2023-11-16T03:24:51.021Z,2.20
2023-11-16T03:27:18.614Z,2.95
2023-11-16T03:29:50.450Z,3.00
2023-11-16T03:32:24.014Z,2.40
2023-11-16T03:34:50.791Z,2.45
2023-11-16T03:37:20.318Z,3.33
2023-11-16T03:39:47.915Z,2.40
2023-11-16T03:42:15.678Z,2.20
2023-11-16T03:44:43.347Z,2.45
2023-11-16T03:47:10.941Z,2.30
2023-11-16T03:49:39.877Z,2.38
2023-11-16T03:52:07.621Z,2.40
2023-11-16T03:54:35.214Z,2.83
2023-11-16T03:57:03.088Z,2.30
2023-11-16T03:59:30.837Z,2.30
2023-11-16T04:01:58.444Z,2.13
2023-11-16T04:04:26.154Z,2.25
2023-11-16T04:06:55.150Z,3.25
2023-11-16T04:09:25.348Z,2.55
2023-11-16T04:11:53.012Z,2.85
2023-11-16T04:14:20.615Z,2.60
2023-11-16T04:16:54.043Z,2.35
2023-11-16T04:19:22.879Z,2.50
2023-11-16T04:21:51.928Z,2.92
2023-11-16T04:24:24.106Z,3.03
2023-11-16T04:26:51.749Z,2.47
2023-11-16T04:29:20.565Z,3.00
2023-11-16T04:31:48.816Z,2.97
2023-11-16T04:34:16.538Z,2.67
2023-11-16T04:36:44.159Z,3.00
2023-11-16T04:39:13.630Z,4.18
2023-11-16T04:41:44.115Z,3.13
2023-11-16T04:44:11.659Z,2.88
2023-11-16T04:46:46.424Z,3.10
2023-11-16T04:49:14.806Z,2.85
2023-11-16T04:51:42.739Z,2.70
2023-11-16T04:54:10.987Z,2.70
2023-11-16T04:56:38.778Z,2.88
2023-11-16T04:59:09.447Z,2.75
2023-11-16T05:01:37.135Z,2.67
2023-11-16T05:04:05.085Z,2.60
2023-11-16T05:06:32.754Z,2.50
2023-11-16T05:09:00.399Z,2.63
2023-11-16T05:11:27.956Z,3.05
2023-11-16T05:13:56.129Z,2.22
2023-11-16T05:16:28.561Z,2.15
2023-11-16T05:18:56.519Z,2.53
2023-11-16T05:21:24.121Z,1.92
2023-11-16T05:23:51.712Z,3.03
2023-11-16T05:26:19.313Z,2.45
2023-11-16T05:28:46.902Z,2.55
2023-11-16T05:31:14.473Z,2.53
2023-11-16T05:33:43.556Z,2.65
2023-11-16T05:36:12.344Z,2.42
2023-11-16T05:38:39.995Z,2.35
2023-11-16T05:41:07.895Z,2.50
2023-11-16T05:43:35.884Z,2.50
2023-11-16T05:46:03.556Z,2.70
2023-11-16T05:48:31.276Z,2.40
2023-11-16T05:51:00.338Z,2.47
2023-11-16T05:53:28.017Z,2.72
2023-11-16T05:55:58.219Z,2.40
2023-11-16T05:58:25.810Z,2.25
2023-11-16T06:00:54.083Z,2.50
2023-11-16T06:03:26.677Z,2.97
2023-11-16T06:05:54.523Z,2.30
2023-11-16T06:08:23.484Z,2.45
2023-11-16T06:10:52.134Z,2.60
2023-11-16T06:13:23.884Z,2.95
2023-11-16T06:15:53.796Z,2.80
2023-11-16T06:18:21.901Z,3.05
2023-11-16T06:20:49.519Z,2.30
2023-11-16T06:23:17.134Z,2.60
2023-11-16T06:25:46.096Z,2.80
2023-11-16T06:28:13.656Z,2.50
2023-11-16T06:30:41.480Z,2.72
2023-11-16T06:33:09.169Z,3.03
2023-11-16T06:35:36.736Z,2.40
2023-11-16T06:38:04.704Z,2.70
2023-11-16T06:40:32.277Z,3.00
2023-11-16T06:43:01.203Z,2.60
2023-11-16T06:45:33.142Z,2.38
2023-11-16T06:48:04.576Z,2.30
2023-11-16T06:50:43.968Z,2.50
2023-11-16T06:53:12.319Z,2.67
2023-11-16T06:55:44.388Z,2.80
2023-11-16T06:58:13.594Z,2.30
2023-11-16T07:00:41.281Z,2.15
2023-11-16T07:03:10.968Z,2.45
2023-11-16T07:05:38.787Z,2.30
2023-11-16T07:08:06.691Z,2.30
2023-11-16T07:10:34.299Z,2.50
2023-11-16T07:13:04.289Z,2.28
2023-11-16T07:15:33.786Z,2.10
2023-11-16T07:18:02.634Z,2.42
2023-11-16T07:20:31.111Z,2.58
2023-11-16T07:22:58.663Z,2.80
2023-11-16T07:25:28.671Z,2.80
2023-11-16T07:27:56.557Z,2.33
2023-11-16T07:30:25.469Z,2.70
2023-11-16T07:32:54.584Z,2.47
2023-11-16T07:35:24.666Z,2.45
2023-11-16T07:37:53.023Z,2.50
2023-11-16T07:40:20.651Z,3.20
2023-11-16T07:42:49.192Z,2.85
2023-11-16T07:45:17.684Z,2.70
2023-11-16T07:47:46.157Z,2.50
2023-11-16T07:50:15.251Z,2.40
2023-11-16T07:52:48.194Z,2.40
2023-11-16T07:55:17.544Z,2.97
2023-11-16T07:57:49.529Z,2.22
2023-11-16T08:00:23.861Z,2.70
2023-11-16T08:03:09.309Z,2.45
2023-11-16T08:05:39.191Z,2.40
2023-11-16T08:08:08.373Z,2.70
2023-11-16T08:10:36.126Z,2.40
2023-11-16T08:13:03.733Z,2.80
2023-11-16T08:15:33.730Z,2.70
2023-11-16T08:18:02.340Z,2.72
2023-11-16T08:20:32.378Z,2.90
2023-11-16T08:23:01.506Z,2.60
2023-11-16T08:25:31.887Z,2.38
2023-11-16T08:28:02.698Z,2.83
2023-11-16T08:30:30.546Z,2.50
2023-11-16T08:32:58.268Z,4.32
2023-11-16T08:35:25.912Z,2.40
2023-11-16T08:37:55.184Z,3.33
2023-11-16T08:40:25.413Z,2.90
2023-11-16T08:42:55.717Z,3.40
2023-11-16T08:45:26.029Z,3.05
2023-11-16T08:47:57.946Z,3.10
2023-11-16T08:50:25.740Z,3.65
2023-11-16T08:52:53.334Z,2.90
2023-11-16T08:55:22.862Z,3.70
2023-11-16T08:57:52.672Z,3.42
2023-11-16T09:00:29.705Z,3.00
2023-11-16T09:02:58.676Z,3.45
2023-11-16T09:05:29.373Z,3.20
2023-11-16T09:07:57.188Z,3.30
2023-11-16T09:10:25.443Z,3.30
2023-11-16T09:12:56.456Z,4.25
2023-11-16T09:15:24.628Z,3.15
2023-11-16T09:17:53.024Z,4.32
2023-11-16T09:20:20.893Z,3.05
2023-11-16T09:22:50.116Z,3.08
2023-11-16T09:25:20.293Z,3.30
2023-11-16T09:27:51.649Z,3.10
2023-11-16T09:30:23.606Z,3.20
2023-11-16T09:32:52.344Z,2.97
2023-11-16T09:35:23.028Z,3.40
2023-11-16T09:37:53.295Z,2.70
2023-11-16T09:40:24.163Z,2.70
2023-11-16T09:42:58.667Z,3.13
2023-11-16T09:45:29.728Z,4.22
2023-11-16T09:48:01.037Z,3.38
2023-11-16T09:50:29.151Z,2.60
2023-11-16T09:52:58.021Z,4.35
2023-11-16T09:55:27.633Z,2.70
2023-11-16T09:57:57.088Z,3.30
2023-11-16T10:00:24.992Z,2.67
2023-11-16T10:02:57.191Z,3.13
2023-11-16T10:05:25.361Z,2.50
2023-11-16T10:07:54.792Z,3.22
2023-11-16T10:10:22.586Z,2.63
2023-11-16T10:12:51.724Z,2.97
2023-11-16T10:15:21.477Z,2.85
2023-11-16T10:17:49.709Z,3.00
2023-11-16T10:20:19.143Z,2.60
2023-11-16T10:22:46.749Z,3.35
2023-11-16T10:25:15.411Z,2.67
2023-11-16T10:27:43.080Z,5.17
2023-11-16T10:30:13.581Z,2.80
2023-11-16T10:32:43.693Z,2.60
2023-11-16T10:35:14.051Z,2.83
2023-11-16T10:37:44.248Z,2.70
2023-11-16T10:40:12.917Z,2.50
2023-11-16T10:42:42.667Z,3.10
2023-11-16T10:45:13.643Z,2.70
2023-11-16T10:47:43.445Z,3.08
2023-11-16T10:50:12.335Z,2.70
2023-11-16T10:52:41.633Z,2.70
2023-11-16T10:55:17.474Z,3.33
2023-11-16T10:57:47.817Z,3.10
2023-11-16T11:00:18.830Z,2.80
2023-11-16T11:02:48.025Z,2.83
2023-11-16T11:05:20.737Z,2.60
2023-11-16T11:07:49.093Z,2.97
2023-11-16T11:10:19.138Z,2.70
2023-11-16T11:12:48.277Z,2.70
2023-11-16T11:15:31.013Z,2.95
2023-11-16T11:17:59.917Z,2.60
2023-11-16T11:20:34.503Z,2.50
2023-11-16T11:23:05.743Z,2.70
2023-11-16T11:25:34.805Z,2.78
2023-11-16T11:28:02.758Z,2.90
2023-11-16T11:30:31.363Z,2.67
2023-11-16T11:33:05.690Z,3.67
2023-11-16T11:35:37.071Z,2.50
2023-11-16T11:38:15.788Z,3.47
2023-11-16T11:40:48.310Z,2.80
2023-11-16T11:43:20.986Z,3.07
2023-11-16T11:45:48.846Z,2.60
2023-11-16T11:48:16.567Z,2.80
2023-11-16T11:50:44.193Z,2.60
2023-11-16T11:53:17.565Z,2.55
2023-11-16T11:55:49.326Z,2.80
2023-11-16T11:58:17.377Z,3.08
2023-11-16T12:00:48.703Z,2.67
2023-11-16T12:03:16.678Z,2.95
2023-11-16T12:05:44.647Z,3.22
2023-11-16T12:08:12.268Z,3.10
2023-11-16T12:10:40.245Z,2.83
2023-11-16T12:13:09.762Z,2.70
2023-11-16T12:15:37.839Z,2.70
2023-11-16T12:18:08.268Z,2.80
2023-11-16T12:20:38.788Z,3.43
2023-11-16T12:23:07.747Z,3.30
2023-11-16T12:25:37.365Z,2.50
2023-11-16T12:28:06.613Z,3.25
2023-11-16T12:30:39.213Z,2.40
2023-11-16T12:33:09.454Z,2.63
2023-11-16T12:35:41.557Z,3.53
2023-11-16T12:38:09.292Z,2.60
2023-11-16T12:40:37.292Z,3.35
2023-11-16T12:43:05.564Z,3.05
2023-11-16T12:45:33.311Z,2.57
2023-11-16T12:48:02.447Z,2.50
2023-11-16T12:50:30.082Z,2.65
2023-11-16T12:52:57.910Z,5.43
2023-11-16T12:55:25.540Z,3.05
2023-11-16T12:57:54.346Z,3.03
2023-11-16T13:00:22.451Z,2.60
2023-11-16T13:02:50.122Z,2.50
2023-11-16T13:05:19.960Z,2.80
2023-11-16T13:07:48.473Z,3.97
2023-11-16T13:10:16.100Z,2.67
2023-11-16T13:12:43.758Z,3.25
2023-11-16T13:15:12.168Z,4.47
2023-11-16T13:17:39.780Z,3.05
2023-11-16T13:20:10.068Z,3.33
2023-11-16T13:22:38.998Z,2.47
2023-11-16T13:25:08.299Z,2.90
2023-11-16T13:27:42.433Z,3.15
2023-11-16T13:30:14.461Z,3.20
2023-11-16T13:32:43.480Z,2.63
2023-11-16T13:35:14.605Z,3.23
2023-11-16T13:37:44.331Z,2.90
2023-11-16T13:40:14.192Z,2.70
2023-11-16T13:42:42.025Z,3.05
2023-11-16T13:45:13.571Z,2.60
2023-11-16T13:47:41.583Z,2.30
2023-11-16T13:50:09.763Z,2.60
2023-11-16T13:52:38.775Z,3.25
2023-11-16T13:55:08.278Z,2.80
2023-11-16T13:57:35.952Z,2.78
2023-11-16T14:00:04.461Z,2.55
2023-11-16T14:02:32.118Z,2.78
2023-11-16T14:04:59.741Z,2.92
2023-11-16T14:07:27.628Z,2.70
2023-11-16T14:09:56.776Z,2.92
2023-11-16T14:12:28.319Z,3.23
2023-11-16T14:14:56.187Z,2.78
2023-11-16T14:17:23.754Z,2.78
2023-11-16T14:19:51.377Z,2.88
2023-11-16T14:22:19.577Z,3.75
2023-11-16T14:24:47.923Z,2.70
2023-11-16T14:27:15.948Z,3.13
2023-11-16T14:29:44.903Z,3.03
2023-11-16T14:32:12.515Z,3.20
2023-11-16T14:34:40.062Z,2.55
2023-11-16T14:37:08.413Z,2.88
2023-11-16T14:39:36.014Z,3.05
2023-11-16T14:42:03.924Z,2.67
2023-11-16T14:44:31.484Z,3.72
2023-11-16T14:47:01.120Z,3.38
2023-11-16T14:49:30.429Z,3.25
2023-11-16T14:51:58.086Z,3.13
2023-11-16T14:54:26.634Z,2.80
2023-11-16T14:56:55.650Z,2.60
2023-11-16T14:59:23.666Z,3.75
2023-11-16T15:01:51.489Z,2.45
2023-11-16T15:04:20.526Z,3.08
2023-11-16T15:06:48.247Z,2.85
2023-11-16T15:09:15.879Z,2.60
2023-11-16T15:11:43.484Z,2.50
2023-11-16T15:14:11.403Z,3.53
2023-11-16T15:16:42.973Z,3.08
2023-11-16T15:19:11.617Z,2.80
2023-11-16T15:21:41.138Z,2.72
2023-11-16T15:24:09.488Z,3.80
2023-11-16T15:26:47.907Z,3.03
2023-11-16T15:29:18.398Z,3.80
2023-11-16T15:31:47.083Z,3.00
2023-11-16T15:34:15.869Z,3.15
2023-11-16T15:36:44.982Z,3.20
2023-11-16T15:39:16.279Z,3.22
2023-11-16T15:41:43.984Z,2.70
2023-11-16T15:44:11.537Z,3.58
2023-11-16T15:46:39.155Z,3.47
2023-11-16T15:49:06.948Z,3.10
2023-11-16T15:51:34.709Z,3.25
2023-11-16T15:54:03.694Z,5.50
2023-11-16T15:56:32.566Z,2.90
2023-11-16T15:59:00.723Z,3.97
2023-11-16T16:01:28.407Z,3.30
2023-11-16T16:03:57.775Z,3.00
2023-11-16T16:06:26.137Z,3.50
2023-11-16T16:08:53.839Z,3.35
2023-11-16T16:11:24.231Z,3.45
2023-11-16T16:13:51.855Z,3.85
2023-11-16T16:16:19.625Z,4.13
2023-11-16T16:18:47.993Z,3.97
2023-11-16T16:21:16.169Z,3.67
2023-11-16T16:23:43.967Z,3.53
2023-11-16T16:26:12.445Z,3.38
2023-11-16T16:28:43.664Z,3.00
2023-11-16T16:31:18.009Z,2.95
2023-11-16T16:33:45.656Z,3.75
2023-11-16T16:36:13.273Z,3.42
2023-11-16T16:38:40.840Z,2.85
2023-11-16T16:41:11.700Z,3.50
2023-11-16T16:43:40.836Z,3.42
2023-11-16T16:46:12.589Z,3.58
2023-11-16T16:48:41.010Z,3.10
2023-11-16T16:51:08.719Z,3.38
2023-11-16T16:53:36.300Z,3.30
2023-11-16T16:56:03.959Z,3.53
2023-11-16T16:58:31.626Z,3.83
2023-11-16T17:00:59.799Z,2.97
2023-11-16T17:03:29.037Z,2.90
2023-11-16T17:05:56.724Z,3.85
2023-11-16T17:08:24.298Z,2.90
2023-11-16T17:10:51.887Z,3.45
2023-11-16T17:13:19.427Z,4.38
2023-11-16T17:15:47.138Z,4.75
2023-11-16T17:18:14.830Z,5.40
2023-11-16T17:20:43.965Z,6.93
2023-11-16T17:23:11.629Z,5.72
2023-11-16T17:25:39.534Z,5.65
2023-11-16T17:28:07.422Z,6.45
2023-11-16T17:30:35.066Z,5.13
2023-11-16T17:33:04.129Z,4.18
2023-11-16T17:35:31.906Z,6.15
2023-11-16T17:38:00.861Z,4.32
2023-11-16T17:40:28.965Z,5.75
2023-11-16T17:42:56.590Z,6.55
2023-11-16T17:45:25.361Z,5.93
2023-11-16T17:47:54.210Z,4.75
2023-11-16T17:50:22.947Z,6.10
2023-11-16T17:52:50.950Z,4.15
2023-11-16T17:55:20.879Z,5.10
2023-11-16T17:57:49.007Z,4.05
2023-11-16T18:00:17.143Z,4.00
2023-11-16T18:02:45.134Z,4.22
2023-11-16T18:05:15.934Z,3.80
2023-11-16T18:07:44.011Z,3.83
2023-11-16T18:10:11.799Z,6.32
2023-11-16T18:12:46.184Z,5.30
2023-11-16T18:15:16.360Z,4.90
2023-11-16T18:17:44.077Z,4.28
2023-11-16T18:20:13.811Z,4.70
2023-11-16T18:22:42.483Z,4.70
2023-11-16T18:25:16.040Z,4.50
2023-11-16T18:27:46.169Z,6.28
2023-11-16T18:30:14.726Z,4.28
2023-11-16T18:32:42.490Z,3.55
2023-11-16T18:35:10.892Z,5.47
2023-11-16T18:37:38.958Z,4.18
2023-11-16T18:40:07.766Z,3.50
2023-11-16T18:42:35.771Z,3.78
2023-11-16T18:45:05.757Z,3.47
2023-11-16T18:47:33.428Z,4.35
2023-11-16T18:50:01.141Z,4.05
2023-11-16T18:52:28.856Z,3.90
2023-11-16T18:54:56.496Z,4.00
2023-11-16T18:57:24.096Z,3.78
2023-11-16T18:59:51.685Z,4.85
2023-11-16T19:02:20.701Z,4.60
2023-11-16T19:04:48.317Z,3.80
2023-11-16T19:07:18.025Z,4.13
2023-11-16T19:09:48.647Z,3.88
2023-11-16T19:12:18.953Z,3.85
2023-11-16T19:14:46.550Z,4.97
2023-11-16T19:17:15.076Z,4.00
2023-11-16T19:19:44.109Z,3.47
2023-11-16T19:22:12.821Z,3.78
2023-11-16T19:24:40.628Z,3.92
2023-11-16T19:27:08.588Z,3.80
2023-11-16T19:29:36.207Z,4.03
2023-11-16T19:32:07.538Z,3.65
2023-11-16T19:34:35.817Z,5.55
2023-11-16T19:37:06.644Z,4.22
2023-11-16T19:39:42.773Z,4.05
2023-11-16T19:42:13.267Z,4.05
2023-11-16T19:44:41.337Z,3.40
2023-11-16T19:47:13.251Z,4.20
2023-11-16T19:49:45.444Z,5.35
2023-11-16T19:52:14.448Z,3.80
2023-11-16T19:54:42.147Z,5.00
2023-11-16T19:57:09.750Z,4.75
2023-11-16T19:59:37.500Z,3.88
2023-11-16T20:02:06.867Z,3.50
2023-11-16T20:04:34.693Z,3.85
2023-11-16T20:07:02.404Z,3.85
2023-11-16T20:09:32.406Z,4.03
2023-11-16T20:12:00.276Z,3.65
2023-11-16T20:14:30.910Z,3.83
2023-11-16T20:16:59.291Z,4.40
2023-11-16T20:19:26.935Z,4.15
2023-11-16T20:21:54.958Z,4.10
2023-11-16T20:24:22.652Z,4.20
2023-11-16T20:26:51.582Z,4.43
2023-11-16T20:29:19.213Z,4.90
2023-11-16T20:31:46.764Z,5.20
2023-11-16T20:34:14.627Z,3.80
2023-11-16T20:36:42.337Z,4.85
2023-11-16T20:39:11.554Z,4.28
2023-11-16T20:41:43.692Z,4.20
2023-11-16T20:44:14.799Z,4.35
2023-11-16T20:46:42.409Z,4.50
2023-11-16T20:49:10.021Z,4.00
2023-11-16T20:51:37.644Z,4.57
2023-11-16T20:54:05.841Z,4.75
2023-11-16T20:56:33.774Z,4.10
2023-11-16T20:59:01.454Z,4.35
2023-11-16T21:01:31.415Z,4.30
2023-11-16T21:03:59.947Z,3.33
2023-11-16T21:06:27.643Z,3.40
2023-11-16T21:08:55.207Z,3.30
2023-11-16T21:11:22.773Z,3.65
2023-11-16T21:13:50.656Z,3.13
2023-11-16T21:16:18.310Z,3.50
2023-11-16T21:18:47.344Z,4.88
2023-11-16T21:21:15.928Z,3.90
2023-11-16T21:23:43.543Z,3.85
2023-11-16T21:26:12.120Z,3.80
2023-11-16T21:28:41.251Z,3.65
2023-11-16T21:31:10.284Z,3.25
2023-11-16T21:33:37.989Z,4.20
2023-11-16T21:36:09.469Z,3.88
2023-11-16T21:38:37.169Z,3.70
2023-11-16T21:41:07.307Z,4.20
2023-11-16T21:43:35.089Z,3.97
2023-11-16T21:46:02.721Z,5.03
2023-11-16T21:48:30.342Z,4.20
2023-11-16T21:50:57.962Z,3.50
2023-11-16T21:53:26.882Z,3.90
2023-11-16T21:55:54.738Z,3.67
2023-11-16T21:58:22.333Z,4.10
2023-11-16T22:00:49.992Z,3.90
2023-11-16T22:03:17.676Z,4.15
2023-11-16T22:05:45.852Z,4.32
2023-11-16T22:08:13.559Z,4.28
2023-11-16T22:10:42.650Z,3.55
2023-11-16T22:13:10.640Z,3.60
2023-11-16T22:15:38.457Z,4.15
2023-11-16T22:18:06.367Z,3.25
2023-11-16T22:20:34.054Z,4.20
2023-11-16T22:23:02.400Z,3.20
2023-11-16T22:25:30.542Z,5.60
2023-11-16T22:27:59.522Z,3.50
2023-11-16T22:30:31.613Z,3.30
2023-11-16T22:33:00.386Z,4.10
2023-11-16T22:35:27.981Z,3.38
2023-11-16T22:37:55.608Z,3.45
2023-11-16T22:40:23.210Z,3.22
2023-11-16T22:42:51.598Z,3.15
2023-11-16T22:45:20.648Z,3.28
2023-11-16T22:47:48.554Z,3.67
2023-11-16T22:50:16.673Z,3.00
2023-11-16T22:52:44.652Z,3.13
2023-11-16T22:55:13.533Z,3.10
2023-11-16T22:57:42.484Z,3.67
2023-11-16T23:00:14.952Z,3.95
2023-11-16T23:02:43.963Z,3.08
2023-11-16T23:05:11.827Z,3.13
2023-11-16T23:07:40.095Z,3.78
2023-11-16T23:10:11.457Z,3.90
2023-11-16T23:12:39.369Z,3.88
2023-11-16T23:15:09.434Z,3.30
2023-11-16T23:17:37.381Z,3.90
2023-11-16T23:20:08.671Z,2.67
2023-11-16T23:22:36.267Z,2.70
2023-11-16T23:25:05.284Z,2.80
2023-11-16T23:27:33.187Z,2.80
2023-11-16T23:30:00.887Z,3.35
2023-11-16T23:32:28.543Z,2.70
2023-11-16T23:34:56.149Z,3.10
2023-11-16T23:37:25.137Z,3.25
2023-11-16T23:39:52.735Z,2.72
2023-11-16T23:42:20.365Z,2.60
2023-11-16T23:44:47.986Z,2.80
2023-11-16T23:47:15.585Z,3.40
2023-11-16T23:49:43.211Z,2.80
2023-11-16T23:52:13.885Z,3.00
2023-11-16T23:54:43.786Z,2.80
2023-11-16T23:57:11.495Z,3.08
2023-11-16T23:59:39.063Z,4.85
